sensor_id;sensor_type;location;lat;lon;timestamp;temperature;humidity
18317;DHT22;9284;52.298;21.164;2024-01-06T00:00:09;-1.50;99.90
18317;DHT22;9284;52.298;21.164;2024-01-06T00:02:39;-1.60;99.90
18317;DHT22;9284;52.298;21.164;2024-01-06T00:05:08;-1.40;1.00
18317;DHT22;9284;52.298;21.164;2024-01-06T00:07:36;-1.60;1.00
18317;DHT22;9284;52.298;21.164;2024-01-06T00:10:06;-1.60;1.00
18317;DHT22;9284;52.298;21.164;2024-01-06T00:12:34;-1.70;99.90
18317;DHT22;9284;52.298;21.164;2024-01-06T00:15:03;-1.70;99.90
18317;DHT22;9284;52.298;21.164;2024-01-06T00:17:31;-1.70;1.00
18317;DHT22;9284;52.298;21.164;2024-01-06T00:20:01;-1.60;1.00
18317;DHT22;9284;52.298;21.164;2024-01-06T00:22:30;-1.70;1.00
18317;DHT22;9284;52.298;21.164;2024-01-06T00:24:58;-1.70;1.00
18317;DHT22;9284;52.298;21.164;2024-01-06T00:27:26;-1.70;1.00
18317;DHT22;9284;52.298;21.164;2024-01-06T00:29:55;-1.60;99.90
18317;DHT22;9284;52.298;21.164;2024-01-06T00:32:23;-1.80;99.90
18317;DHT22;9284;52.298;21.164;2024-01-06T00:34:51;-1.80;99.90
18317;DHT22;9284;52.298;21.164;2024-01-06T00:37:21;-1.80;99.90
18317;DHT22;9284;52.298;21.164;2024-01-06T00:39:50;-1.90;99.90
18317;DHT22;9284;52.298;21.164;2024-01-06T00:42:18;-1.90;1.00
18317;DHT22;9284;52.298;21.164;2024-01-06T00:44:47;-1.90;1.00
18317;DHT22;9284;52.298;21.164;2024-01-06T00:47:15;-1.90;1.00
18317;DHT22;9284;52.298;21.164;2024-01-06T00:49:43;-1.90;1.00
18317;DHT22;9284;52.298;21.164;2024-01-06T00:52:12;-1.90;1.00
18317;DHT22;9284;52.298;21.164;2024-01-06T00:54:42;-1.90;1.00
18317;DHT22;9284;52.298;21.164;2024-01-06T00:57:10;-2.00;1.00
18317;DHT22;9284;52.298;21.164;2024-01-06T00:59:39;-1.90;1.00
18317;DHT22;9284;52.298;21.164;2024-01-06T01:02:07;-1.90;1.00
18317;DHT22;9284;52.298;21.164;2024-01-06T01:04:35;-2.00;1.00
18317;DHT22;9284;52.298;21.164;2024-01-06T01:07:04;-2.00;1.00
18317;DHT22;9284;52.298;21.164;2024-01-06T01:09:32;-2.00;1.00
18317;DHT22;9284;52.298;21.164;2024-01-06T01:12:02;-2.00;1.00
18317;DHT22;9284;52.298;21.164;2024-01-06T01:14:30;-2.00;1.00
18317;DHT22;9284;52.298;21.164;2024-01-06T01:16:58;-2.00;1.00
18317;DHT22;9284;52.298;21.164;2024-01-06T01:19:26;-2.00;1.00
18317;DHT22;9284;52.298;21.164;2024-01-06T01:21:55;-2.00;1.00
18317;DHT22;9284;52.298;21.164;2024-01-06T01:24:23;-2.00;1.00
18317;DHT22;9284;52.298;21.164;2024-01-06T01:26:52;-2.00;99.90
18317;DHT22;9284;52.298;21.164;2024-01-06T01:29:21;-2.00;1.00
18317;DHT22;9284;52.298;21.164;2024-01-06T01:31:49;-2.00;74.90
18317;DHT22;9284;52.298;21.164;2024-01-06T01:34:18;-2.10;99.90
18317;DHT22;9284;52.298;21.164;2024-01-06T01:36:46;-2.10;99.90
18317;DHT22;9284;52.298;21.164;2024-01-06T01:39:15;-2.00;99.90
18317;DHT22;9284;52.298;21.164;2024-01-06T01:41:43;-2.00;2.00
18317;DHT22;9284;52.298;21.164;2024-01-06T01:44:12;-2.00;1.00
18317;DHT22;9284;52.298;21.164;2024-01-06T01:46:41;-2.00;99.90
18317;DHT22;9284;52.298;21.164;2024-01-06T01:49:10;-2.00;1.00
18317;DHT22;9284;52.298;21.164;2024-01-06T01:51:38;-1.90;1.00
18317;DHT22;9284;52.298;21.164;2024-01-06T01:54:07;-2.00;1.00
18317;DHT22;9284;52.298;21.164;2024-01-06T01:56:36;-2.00;1.00
18317;DHT22;9284;52.298;21.164;2024-01-06T01:59:11;-2.00;1.00
18317;DHT22;9284;52.298;21.164;2024-01-06T02:01:41;-1.90;1.00
18317;DHT22;9284;52.298;21.164;2024-01-06T02:04:09;-2.00;99.90
18317;DHT22;9284;52.298;21.164;2024-01-06T02:06:38;-2.00;1.00
18317;DHT22;9284;52.298;21.164;2024-01-06T02:09:06;-2.00;1.00
18317;DHT22;9284;52.298;21.164;2024-01-06T02:11:34;-2.00;1.00
18317;DHT22;9284;52.298;21.164;2024-01-06T02:14:03;-1.90;1.00
18317;DHT22;9284;52.298;21.164;2024-01-06T02:16:31;-1.90;1.00
18317;DHT22;9284;52.298;21.164;2024-01-06T02:19:00;-2.00;1.00
18317;DHT22;9284;52.298;21.164;2024-01-06T02:21:31;-1.90;1.00
18317;DHT22;9284;52.298;21.164;2024-01-06T02:24:05;-2.00;1.00
18317;DHT22;9284;52.298;21.164;2024-01-06T02:26:33;-1.90;1.00
18317;DHT22;9284;52.298;21.164;2024-01-06T02:29:01;-1.90;1.00
18317;DHT22;9284;52.298;21.164;2024-01-06T02:31:30;-1.90;1.00
18317;DHT22;9284;52.298;21.164;2024-01-06T02:33:58;-1.90;1.00
18317;DHT22;9284;52.298;21.164;2024-01-06T02:36:26;-1.90;1.00
18317;DHT22;9284;52.298;21.164;2024-01-06T02:38:55;-1.90;1.00
18317;DHT22;9284;52.298;21.164;2024-01-06T02:41:24;-1.90;1.00
18317;DHT22;9284;52.298;21.164;2024-01-06T02:43:54;-1.90;1.00
18317;DHT22;9284;52.298;21.164;2024-01-06T02:46:22;-1.90;1.00
18317;DHT22;9284;52.298;21.164;2024-01-06T02:48:50;-1.90;99.90
18317;DHT22;9284;52.298;21.164;2024-01-06T02:51:19;-1.90;99.90
18317;DHT22;9284;52.298;21.164;2024-01-06T02:53:47;-1.90;99.90
18317;DHT22;9284;52.298;21.164;2024-01-06T02:56:15;-1.90;99.90
18317;DHT22;9284;52.298;21.164;2024-01-06T02:58:45;-1.90;99.90
18317;DHT22;9284;52.298;21.164;2024-01-06T03:01:13;-2.00;99.90
18317;DHT22;9284;52.298;21.164;2024-01-06T03:03:42;-2.00;99.90
18317;DHT22;9284;52.298;21.164;2024-01-06T03:06:10;-2.00;99.90
18317;DHT22;9284;52.298;21.164;2024-01-06T03:08:38;-2.00;99.90
18317;DHT22;9284;52.298;21.164;2024-01-06T03:11:07;-2.00;99.90
18317;DHT22;9284;52.298;21.164;2024-01-06T03:13:35;-1.90;99.90
18317;DHT22;9284;52.298;21.164;2024-01-06T03:16:05;-2.00;99.90
18317;DHT22;9284;52.298;21.164;2024-01-06T03:18:33;-1.90;95.50
18317;DHT22;9284;52.298;21.164;2024-01-06T03:21:02;-2.00;99.90
18317;DHT22;9284;52.298;21.164;2024-01-06T03:23:30;-2.00;99.90
18317;DHT22;9284;52.298;21.164;2024-01-06T03:26:01;-2.00;1.00
18317;DHT22;9284;52.298;21.164;2024-01-06T03:28:33;-2.00;1.00
18317;DHT22;9284;52.298;21.164;2024-01-06T03:31:01;-2.00;1.00
18317;DHT22;9284;52.298;21.164;2024-01-06T03:33:31;-2.00;1.00
18317;DHT22;9284;52.298;21.164;2024-01-06T03:36:04;-2.00;99.90
18317;DHT22;9284;52.298;21.164;2024-01-06T03:38:33;-2.10;99.90
18317;DHT22;9284;52.298;21.164;2024-01-06T03:41:01;-2.10;99.90
18317;DHT22;9284;52.298;21.164;2024-01-06T03:43:30;-2.10;1.00
18317;DHT22;9284;52.298;21.164;2024-01-06T03:45:58;-2.00;1.00
18317;DHT22;9284;52.298;21.164;2024-01-06T03:48:27;-2.10;1.00
18317;DHT22;9284;52.298;21.164;2024-01-06T03:50:57;-2.10;27.30
18317;DHT22;9284;52.298;21.164;2024-01-06T03:53:25;-2.10;99.90
18317;DHT22;9284;52.298;21.164;2024-01-06T03:55:54;-2.10;99.90
18317;DHT22;9284;52.298;21.164;2024-01-06T03:58:22;-2.00;99.90
18317;DHT22;9284;52.298;21.164;2024-01-06T04:00:50;-2.10;99.90
18317;DHT22;9284;52.298;21.164;2024-01-06T04:03:18;-2.00;99.90
18317;DHT22;9284;52.298;21.164;2024-01-06T04:05:47;-2.10;99.90
18317;DHT22;9284;52.298;21.164;2024-01-06T04:08:17;-2.10;99.90
18317;DHT22;9284;52.298;21.164;2024-01-06T04:10:45;-2.00;1.00
18317;DHT22;9284;52.298;21.164;2024-01-06T04:13:15;-2.10;1.00
18317;DHT22;9284;52.298;21.164;2024-01-06T04:15:43;-2.10;1.00
18317;DHT22;9284;52.298;21.164;2024-01-06T04:18:12;-2.00;1.00
18317;DHT22;9284;52.298;21.164;2024-01-06T04:20:40;-2.10;1.00
18317;DHT22;9284;52.298;21.164;2024-01-06T04:23:08;-2.10;1.00
18317;DHT22;9284;52.298;21.164;2024-01-06T04:25:38;-2.10;79.80
18317;DHT22;9284;52.298;21.164;2024-01-06T04:28:06;-2.10;99.90
18317;DHT22;9284;52.298;21.164;2024-01-06T04:30:34;-2.10;14.90
18317;DHT22;9284;52.298;21.164;2024-01-06T04:33:03;-2.10;99.90
18317;DHT22;9284;52.298;21.164;2024-01-06T04:35:32;-2.10;99.90
18317;DHT22;9284;52.298;21.164;2024-01-06T04:38:00;-2.10;99.90
18317;DHT22;9284;52.298;21.164;2024-01-06T04:40:28;-2.00;99.90
18317;DHT22;9284;52.298;21.164;2024-01-06T04:42:58;-2.10;99.90
18317;DHT22;9284;52.298;21.164;2024-01-06T04:45:26;-2.10;99.90
18317;DHT22;9284;52.298;21.164;2024-01-06T04:47:55;-2.10;99.90
18317;DHT22;9284;52.298;21.164;2024-01-06T04:50:23;-2.10;99.90
18317;DHT22;9284;52.298;21.164;2024-01-06T04:52:51;-2.10;99.90
18317;DHT22;9284;52.298;21.164;2024-01-06T04:55:20;-2.00;99.90
18317;DHT22;9284;52.298;21.164;2024-01-06T04:57:48;-2.10;99.90
18317;DHT22;9284;52.298;21.164;2024-01-06T05:00:18;-2.10;99.90
18317;DHT22;9284;52.298;21.164;2024-01-06T05:02:46;-2.00;1.00
18317;DHT22;9284;52.298;21.164;2024-01-06T05:05:15;-1.90;1.00
18317;DHT22;9284;52.298;21.164;2024-01-06T05:07:43;-2.00;99.90
18317;DHT22;9284;52.298;21.164;2024-01-06T05:10:11;-2.00;99.90
18317;DHT22;9284;52.298;21.164;2024-01-06T05:12:40;-2.00;1.00
18317;DHT22;9284;52.298;21.164;2024-01-06T05:15:09;-2.00;1.00
18317;DHT22;9284;52.298;21.164;2024-01-06T05:17:39;-2.00;99.90
18317;DHT22;9284;52.298;21.164;2024-01-06T05:20:07;-2.00;1.00
18317;DHT22;9284;52.298;21.164;2024-01-06T05:22:36;-1.90;1.00
18317;DHT22;9284;52.298;21.164;2024-01-06T05:25:04;-2.00;1.00
18317;DHT22;9284;52.298;21.164;2024-01-06T05:27:33;-2.00;66.90
18317;DHT22;9284;52.298;21.164;2024-01-06T05:30:01;-1.90;99.90
18317;DHT22;9284;52.298;21.164;2024-01-06T05:32:30;-2.00;99.90
18317;DHT22;9284;52.298;21.164;2024-01-06T05:34:59;-2.00;99.90
18317;DHT22;9284;52.298;21.164;2024-01-06T05:37:28;-2.10;99.90
18317;DHT22;9284;52.298;21.164;2024-01-06T05:39:56;-2.00;99.90
18317;DHT22;9284;52.298;21.164;2024-01-06T05:42:28;-2.10;99.90
18317;DHT22;9284;52.298;21.164;2024-01-06T05:44:56;-2.00;1.00
18317;DHT22;9284;52.298;21.164;2024-01-06T05:47:24;-2.00;1.00
18317;DHT22;9284;52.298;21.164;2024-01-06T05:49:53;-2.10;1.00
18317;DHT22;9284;52.298;21.164;2024-01-06T05:52:22;-2.10;1.00
18317;DHT22;9284;52.298;21.164;2024-01-06T05:54:51;-2.00;1.00
18317;DHT22;9284;52.298;21.164;2024-01-06T05:57:19;-2.10;1.00
18317;DHT22;9284;52.298;21.164;2024-01-06T05:59:48;-2.10;1.00
18317;DHT22;9284;52.298;21.164;2024-01-06T06:02:16;-2.10;1.00
18317;DHT22;9284;52.298;21.164;2024-01-06T06:04:44;-2.10;1.00
18317;DHT22;9284;52.298;21.164;2024-01-06T06:07:13;-2.00;1.00
18317;DHT22;9284;52.298;21.164;2024-01-06T06:09:42;-2.10;1.00
18317;DHT22;9284;52.298;21.164;2024-01-06T06:12:14;-2.10;99.90
18317;DHT22;9284;52.298;21.164;2024-01-06T06:14:43;-2.10;99.90
18317;DHT22;9284;52.298;21.164;2024-01-06T06:17:11;-2.10;99.90
18317;DHT22;9284;52.298;21.164;2024-01-06T06:19:39;-2.10;99.90
18317;DHT22;9284;52.298;21.164;2024-01-06T06:22:07;-2.10;99.90
18317;DHT22;9284;52.298;21.164;2024-01-06T06:24:36;-2.00;99.90
18317;DHT22;9284;52.298;21.164;2024-01-06T06:27:06;-2.10;1.00
18317;DHT22;9284;52.298;21.164;2024-01-06T06:29:34;-2.10;1.00
18317;DHT22;9284;52.298;21.164;2024-01-06T06:32:03;-2.10;1.00
18317;DHT22;9284;52.298;21.164;2024-01-06T06:34:31;-2.10;1.00
18317;DHT22;9284;52.298;21.164;2024-01-06T06:37:01;-2.10;1.00
18317;DHT22;9284;52.298;21.164;2024-01-06T06:39:30;-2.10;99.90
18317;DHT22;9284;52.298;21.164;2024-01-06T06:41:58;-2.20;99.90
18317;DHT22;9284;52.298;21.164;2024-01-06T06:44:29;-2.10;99.90
18317;DHT22;9284;52.298;21.164;2024-01-06T06:46:58;-2.10;99.90
18317;DHT22;9284;52.298;21.164;2024-01-06T06:49:26;-2.10;97.60
18317;DHT22;9284;52.298;21.164;2024-01-06T06:51:54;-2.10;1.00
18317;DHT22;9284;52.298;21.164;2024-01-06T06:54:23;-2.20;1.00
18317;DHT22;9284;52.298;21.164;2024-01-06T06:56:51;-2.20;1.00
18317;DHT22;9284;52.298;21.164;2024-01-06T06:59:20;-2.20;1.00
18317;DHT22;9284;52.298;21.164;2024-01-06T07:01:49;-2.20;99.90
18317;DHT22;9284;52.298;21.164;2024-01-06T07:04:18;-2.10;99.90
18317;DHT22;9284;52.298;21.164;2024-01-06T07:06:46;-2.10;99.90
18317;DHT22;9284;52.298;21.164;2024-01-06T07:09:14;-2.10;99.90
18317;DHT22;9284;52.298;21.164;2024-01-06T07:11:44;-2.10;28.00
18317;DHT22;9284;52.298;21.164;2024-01-06T07:14:12;-2.10;99.90
18317;DHT22;9284;52.298;21.164;2024-01-06T07:16:40;-2.10;99.90
18317;DHT22;9284;52.298;21.164;2024-01-06T07:19:10;-2.00;99.90
18317;DHT22;9284;52.298;21.164;2024-01-06T07:21:39;-2.00;76.40
18317;DHT22;9284;52.298;21.164;2024-01-06T07:24:07;-2.10;32.00
18317;DHT22;9284;52.298;21.164;2024-01-06T07:26:35;-2.00;1.00
18317;DHT22;9284;52.298;21.164;2024-01-06T07:29:04;-2.10;1.00
18317;DHT22;9284;52.298;21.164;2024-01-06T07:31:32;-2.00;1.00
18317;DHT22;9284;52.298;21.164;2024-01-06T07:34:01;-2.10;1.00
18317;DHT22;9284;52.298;21.164;2024-01-06T07:36:31;-2.00;1.00
18317;DHT22;9284;52.298;21.164;2024-01-06T07:38:59;-2.00;1.00
18317;DHT22;9284;52.298;21.164;2024-01-06T07:41:28;-2.00;1.00
18317;DHT22;9284;52.298;21.164;2024-01-06T07:43:59;-2.00;1.00
18317;DHT22;9284;52.298;21.164;2024-01-06T07:46:29;-2.00;1.00
18317;DHT22;9284;52.298;21.164;2024-01-06T07:48:59;-1.90;1.00
18317;DHT22;9284;52.298;21.164;2024-01-06T07:51:27;-1.80;1.00
18317;DHT22;9284;52.298;21.164;2024-01-06T07:53:57;-1.90;99.90
18317;DHT22;9284;52.298;21.164;2024-01-06T07:56:26;-1.90;99.90
18317;DHT22;9284;52.298;21.164;2024-01-06T07:58:54;-1.90;1.00
18317;DHT22;9284;52.298;21.164;2024-01-06T08:01:22;-1.90;1.00
18317;DHT22;9284;52.298;21.164;2024-01-06T08:03:51;-1.80;1.00
18317;DHT22;9284;52.298;21.164;2024-01-06T08:06:19;-1.70;1.00
18317;DHT22;9284;52.298;21.164;2024-01-06T08:08:47;-1.80;1.00
18317;DHT22;9284;52.298;21.164;2024-01-06T08:11:17;-1.90;1.00
18317;DHT22;9284;52.298;21.164;2024-01-06T08:13:45;-1.80;1.00
18317;DHT22;9284;52.298;21.164;2024-01-06T08:16:14;-1.90;1.00
18317;DHT22;9284;52.298;21.164;2024-01-06T08:18:42;-1.80;1.00
18317;DHT22;9284;52.298;21.164;2024-01-06T08:21:11;-1.80;1.00
18317;DHT22;9284;52.298;21.164;2024-01-06T08:23:39;-1.70;1.00
18317;DHT22;9284;52.298;21.164;2024-01-06T08:26:08;-1.70;1.00
18317;DHT22;9284;52.298;21.164;2024-01-06T08:28:40;-1.70;99.90
18317;DHT22;9284;52.298;21.164;2024-01-06T08:31:09;-1.70;99.90
18317;DHT22;9284;52.298;21.164;2024-01-06T08:33:37;-1.70;99.90
18317;DHT22;9284;52.298;21.164;2024-01-06T08:36:06;-1.70;99.90
18317;DHT22;9284;52.298;21.164;2024-01-06T08:38:35;-1.70;99.90
18317;DHT22;9284;52.298;21.164;2024-01-06T08:41:04;-1.70;99.90
18317;DHT22;9284;52.298;21.164;2024-01-06T08:43:32;-1.70;99.90
18317;DHT22;9284;52.298;21.164;2024-01-06T08:46:02;-1.70;99.90
18317;DHT22;9284;52.298;21.164;2024-01-06T08:48:30;-1.80;99.90
18317;DHT22;9284;52.298;21.164;2024-01-06T08:51:02;-1.70;1.00
18317;DHT22;9284;52.298;21.164;2024-01-06T08:53:30;-1.70;1.00
18317;DHT22;9284;52.298;21.164;2024-01-06T08:55:58;-1.70;1.00
18317;DHT22;9284;52.298;21.164;2024-01-06T08:58:27;-1.70;1.00
18317;DHT22;9284;52.298;21.164;2024-01-06T09:00:55;-1.60;1.00
18317;DHT22;9284;52.298;21.164;2024-01-06T09:03:25;-1.60;1.00
18317;DHT22;9284;52.298;21.164;2024-01-06T09:05:55;-1.60;1.00
18317;DHT22;9284;52.298;21.164;2024-01-06T09:08:24;-1.60;1.00
18317;DHT22;9284;52.298;21.164;2024-01-06T09:10:53;-1.70;1.00
18317;DHT22;9284;52.298;21.164;2024-01-06T09:13:24;-1.60;1.00
18317;DHT22;9284;52.298;21.164;2024-01-06T09:15:53;-1.60;1.00
18317;DHT22;9284;52.298;21.164;2024-01-06T09:18:25;-1.60;1.00
18317;DHT22;9284;52.298;21.164;2024-01-06T09:20:54;-1.60;1.00
18317;DHT22;9284;52.298;21.164;2024-01-06T09:23:23;-1.70;99.90
18317;DHT22;9284;52.298;21.164;2024-01-06T09:25:51;-1.60;1.00
18317;DHT22;9284;52.298;21.164;2024-01-06T09:28:19;-1.50;1.00
18317;DHT22;9284;52.298;21.164;2024-01-06T09:30:48;-1.60;1.00
18317;DHT22;9284;52.298;21.164;2024-01-06T09:33:19;-1.60;99.90
18317;DHT22;9284;52.298;21.164;2024-01-06T09:35:49;-1.60;1.00
18317;DHT22;9284;52.298;21.164;2024-01-06T09:38:18;-1.50;99.90
18317;DHT22;9284;52.298;21.164;2024-01-06T09:40:46;-1.60;99.90
18317;DHT22;9284;52.298;21.164;2024-01-06T09:43:16;-1.60;99.90
18317;DHT22;9284;52.298;21.164;2024-01-06T09:45:46;-1.60;99.90
18317;DHT22;9284;52.298;21.164;2024-01-06T09:48:17;-1.60;99.90
18317;DHT22;9284;52.298;21.164;2024-01-06T09:50:46;-1.50;99.90
18317;DHT22;9284;52.298;21.164;2024-01-06T09:53:17;-1.60;99.90
18317;DHT22;9284;52.298;21.164;2024-01-06T09:55:46;-1.50;99.90
18317;DHT22;9284;52.298;21.164;2024-01-06T09:58:19;-1.50;99.90
18317;DHT22;9284;52.298;21.164;2024-01-06T10:00:48;-1.50;99.90
18317;DHT22;9284;52.298;21.164;2024-01-06T10:03:17;-1.60;99.90
18317;DHT22;9284;52.298;21.164;2024-01-06T10:05:45;-1.60;1.00
18317;DHT22;9284;52.298;21.164;2024-01-06T10:08:17;-1.60;1.00
18317;DHT22;9284;52.298;21.164;2024-01-06T10:10:46;-1.50;1.00
18317;DHT22;9284;52.298;21.164;2024-01-06T10:13:16;-1.40;1.00
18317;DHT22;9284;52.298;21.164;2024-01-06T10:15:45;-1.60;99.90
18317;DHT22;9284;52.298;21.164;2024-01-06T10:18:13;-1.50;99.90
18317;DHT22;9284;52.298;21.164;2024-01-06T10:20:44;-1.60;99.90
18317;DHT22;9284;52.298;21.164;2024-01-06T10:23:13;-1.40;1.00
18317;DHT22;9284;52.298;21.164;2024-01-06T10:25:43;-1.40;99.90
18317;DHT22;9284;52.298;21.164;2024-01-06T10:28:12;-1.50;1.00
18317;DHT22;9284;52.298;21.164;2024-01-06T10:30:40;-1.40;1.00
18317;DHT22;9284;52.298;21.164;2024-01-06T10:33:10;-1.50;1.00
18317;DHT22;9284;52.298;21.164;2024-01-06T10:35:40;-1.50;1.00
18317;DHT22;9284;52.298;21.164;2024-01-06T10:38:11;-1.50;1.00
18317;DHT22;9284;52.298;21.164;2024-01-06T10:40:39;-1.40;1.00
18317;DHT22;9284;52.298;21.164;2024-01-06T10:43:09;-1.40;91.00
18317;DHT22;9284;52.298;21.164;2024-01-06T10:45:38;-1.60;1.00
18317;DHT22;9284;52.298;21.164;2024-01-06T10:48:07;-1.50;99.90
18317;DHT22;9284;52.298;21.164;2024-01-06T10:50:36;-1.50;1.00
18317;DHT22;9284;52.298;21.164;2024-01-06T10:53:05;-1.50;1.00
18317;DHT22;9284;52.298;21.164;2024-01-06T10:55:34;-1.50;1.00
18317;DHT22;9284;52.298;21.164;2024-01-06T10:58:04;-1.50;1.00
18317;DHT22;9284;52.298;21.164;2024-01-06T11:00:34;-1.40;93.90
18317;DHT22;9284;52.298;21.164;2024-01-06T11:03:04;-1.20;1.00
18317;DHT22;9284;52.298;21.164;2024-01-06T11:05:33;-1.30;15.80
18317;DHT22;9284;52.298;21.164;2024-01-06T11:08:03;-1.30;1.00
18317;DHT22;9284;52.298;21.164;2024-01-06T11:10:32;-1.30;1.00
18317;DHT22;9284;52.298;21.164;2024-01-06T11:13:08;-1.20;99.90
18317;DHT22;9284;52.298;21.164;2024-01-06T11:15:47;-1.40;99.90
18317;DHT22;9284;52.298;21.164;2024-01-06T11:18:35;-1.30;99.90
18317;DHT22;9284;52.298;21.164;2024-01-06T11:21:20;-1.30;1.00
18317;DHT22;9284;52.298;21.164;2024-01-06T11:24:14;-1.30;99.90
18317;DHT22;9284;52.298;21.164;2024-01-06T11:26:43;-1.30;99.90
18317;DHT22;9284;52.298;21.164;2024-01-06T11:29:12;-1.30;1.00
18317;DHT22;9284;52.298;21.164;2024-01-06T11:31:42;-1.40;1.00
18317;DHT22;9284;52.298;21.164;2024-01-06T11:34:15;-1.40;58.90
18317;DHT22;9284;52.298;21.164;2024-01-06T11:36:48;-1.40;25.50
18317;DHT22;9284;52.298;21.164;2024-01-06T11:39:35;-1.30;1.00
18317;DHT22;9284;52.298;21.164;2024-01-06T11:42:05;-1.20;1.00
18317;DHT22;9284;52.298;21.164;2024-01-06T11:44:37;-1.20;1.00
18317;DHT22;9284;52.298;21.164;2024-01-06T11:47:08;-1.10;1.00
18317;DHT22;9284;52.298;21.164;2024-01-06T11:49:39;-1.10;99.90
18317;DHT22;9284;52.298;21.164;2024-01-06T11:52:07;-1.10;99.90
18317;DHT22;9284;52.298;21.164;2024-01-06T11:54:36;-1.10;55.30
18317;DHT22;9284;52.298;21.164;2024-01-06T11:57:04;-1.10;28.90
18317;DHT22;9284;52.298;21.164;2024-01-06T11:59:32;-1.10;1.00
18317;DHT22;9284;52.298;21.164;2024-01-06T12:02:01;-1.10;4.90
18317;DHT22;9284;52.298;21.164;2024-01-06T12:04:30;-1.10;1.00
18317;DHT22;9284;52.298;21.164;2024-01-06T12:07:06;-1.10;1.00
18317;DHT22;9284;52.298;21.164;2024-01-06T12:09:35;-1.00;1.00
18317;DHT22;9284;52.298;21.164;2024-01-06T12:12:04;-1.00;1.00
18317;DHT22;9284;52.298;21.164;2024-01-06T12:14:33;-0.90;99.90
18317;DHT22;9284;52.298;21.164;2024-01-06T12:17:02;-0.90;99.90
18317;DHT22;9284;52.298;21.164;2024-01-06T12:19:32;-0.90;94.60
18317;DHT22;9284;52.298;21.164;2024-01-06T12:22:06;-0.80;1.00
18317;DHT22;9284;52.298;21.164;2024-01-06T12:24:35;-0.80;1.00
18317;DHT22;9284;52.298;21.164;2024-01-06T12:27:07;-0.90;1.00
18317;DHT22;9284;52.298;21.164;2024-01-06T12:29:38;-0.80;1.00
18317;DHT22;9284;52.298;21.164;2024-01-06T12:32:07;-0.90;1.00
18317;DHT22;9284;52.298;21.164;2024-01-06T12:34:37;-0.90;1.00
18317;DHT22;9284;52.298;21.164;2024-01-06T12:37:06;-0.90;1.00
18317;DHT22;9284;52.298;21.164;2024-01-06T12:39:36;-0.90;1.00
18317;DHT22;9284;52.298;21.164;2024-01-06T12:42:04;-0.90;1.00
18317;DHT22;9284;52.298;21.164;2024-01-06T12:44:32;-0.90;1.00
18317;DHT22;9284;52.298;21.164;2024-01-06T12:47:04;-0.90;99.90
18317;DHT22;9284;52.298;21.164;2024-01-06T12:49:32;-0.80;99.90
18317;DHT22;9284;52.298;21.164;2024-01-06T12:52:06;-0.80;99.90
18317;DHT22;9284;52.298;21.164;2024-01-06T12:54:34;-0.80;99.90
18317;DHT22;9284;52.298;21.164;2024-01-06T12:57:03;-0.90;99.90
18317;DHT22;9284;52.298;21.164;2024-01-06T12:59:31;-0.90;99.90
18317;DHT22;9284;52.298;21.164;2024-01-06T13:02:00;-0.90;1.00
18317;DHT22;9284;52.298;21.164;2024-01-06T13:04:28;-0.90;99.90
18317;DHT22;9284;52.298;21.164;2024-01-06T13:06:57;-1.00;99.90
18317;DHT22;9284;52.298;21.164;2024-01-06T13:09:30;-1.00;99.90
18317;DHT22;9284;52.298;21.164;2024-01-06T13:11:59;-1.10;99.90
18317;DHT22;9284;52.298;21.164;2024-01-06T13:14:28;-1.00;99.90
18317;DHT22;9284;52.298;21.164;2024-01-06T13:16:57;-1.00;87.10
18317;DHT22;9284;52.298;21.164;2024-01-06T13:19:26;-1.10;23.60
18317;DHT22;9284;52.298;21.164;2024-01-06T13:21:55;-1.20;25.20
18317;DHT22;9284;52.298;21.164;2024-01-06T13:24:23;-1.10;2.60
18317;DHT22;9284;52.298;21.164;2024-01-06T13:26:59;-1.10;1.00
18317;DHT22;9284;52.298;21.164;2024-01-06T13:29:29;-1.20;1.00
18317;DHT22;9284;52.298;21.164;2024-01-06T13:31:58;-1.10;1.00
18317;DHT22;9284;52.298;21.164;2024-01-06T13:34:27;-1.10;1.00
18317;DHT22;9284;52.298;21.164;2024-01-06T13:36:57;-1.00;1.00
18317;DHT22;9284;52.298;21.164;2024-01-06T13:39:25;-1.10;1.00
18317;DHT22;9284;52.298;21.164;2024-01-06T13:41:54;-1.10;1.00
18317;DHT22;9284;52.298;21.164;2024-01-06T13:44:23;-1.20;1.00
18317;DHT22;9284;52.298;21.164;2024-01-06T13:46:52;-1.20;1.00
18317;DHT22;9284;52.298;21.164;2024-01-06T13:49:22;-1.10;1.00
18317;DHT22;9284;52.298;21.164;2024-01-06T13:51:51;-1.20;1.00
18317;DHT22;9284;52.298;21.164;2024-01-06T13:54:19;-1.20;1.00
18317;DHT22;9284;52.298;21.164;2024-01-06T13:56:48;-1.20;1.00
18317;DHT22;9284;52.298;21.164;2024-01-06T13:59:16;-1.30;1.00
18317;DHT22;9284;52.298;21.164;2024-01-06T14:01:46;-1.30;1.00
18317;DHT22;9284;52.298;21.164;2024-01-06T14:04:14;-1.30;1.00
18317;DHT22;9284;52.298;21.164;2024-01-06T14:06:44;-1.30;1.00
18317;DHT22;9284;52.298;21.164;2024-01-06T14:09:15;-1.30;1.00
18317;DHT22;9284;52.298;21.164;2024-01-06T14:11:43;-1.30;1.00
18317;DHT22;9284;52.298;21.164;2024-01-06T14:14:12;-1.30;1.00
18317;DHT22;9284;52.298;21.164;2024-01-06T14:16:40;-1.30;1.00
18317;DHT22;9284;52.298;21.164;2024-01-06T14:19:11;-1.30;1.00
18317;DHT22;9284;52.298;21.164;2024-01-06T14:21:40;-1.30;1.00
18317;DHT22;9284;52.298;21.164;2024-01-06T14:24:08;-1.20;1.00
18317;DHT22;9284;52.298;21.164;2024-01-06T14:26:36;-1.30;1.00
18317;DHT22;9284;52.298;21.164;2024-01-06T14:29:07;-1.20;1.00
18317;DHT22;9284;52.298;21.164;2024-01-06T14:31:35;-1.30;1.00
18317;DHT22;9284;52.298;21.164;2024-01-06T14:34:04;-1.40;1.00
18317;DHT22;9284;52.298;21.164;2024-01-06T14:36:34;-1.40;1.00
18317;DHT22;9284;52.298;21.164;2024-01-06T14:39:03;-1.40;1.00
18317;DHT22;9284;52.298;21.164;2024-01-06T14:41:33;-1.40;1.00
18317;DHT22;9284;52.298;21.164;2024-01-06T14:44:01;-1.50;1.00
18317;DHT22;9284;52.298;21.164;2024-01-06T14:46:29;-1.50;1.00
18317;DHT22;9284;52.298;21.164;2024-01-06T14:49:00;-1.50;1.00
18317;DHT22;9284;52.298;21.164;2024-01-06T14:51:30;-1.50;1.00
18317;DHT22;9284;52.298;21.164;2024-01-06T14:54:00;-1.50;1.00
18317;DHT22;9284;52.298;21.164;2024-01-06T14:56:28;-1.60;1.00
18317;DHT22;9284;52.298;21.164;2024-01-06T14:58:57;-1.60;1.00
18317;DHT22;9284;52.298;21.164;2024-01-06T15:01:25;-1.60;1.00
18317;DHT22;9284;52.298;21.164;2024-01-06T15:03:54;-1.60;1.00
18317;DHT22;9284;52.298;21.164;2024-01-06T15:06:22;-1.50;1.00
18317;DHT22;9284;52.298;21.164;2024-01-06T15:08:51;-1.60;1.00
18317;DHT22;9284;52.298;21.164;2024-01-06T15:11:22;-1.70;99.90
18317;DHT22;9284;52.298;21.164;2024-01-06T15:13:50;-1.70;99.90
18317;DHT22;9284;52.298;21.164;2024-01-06T15:16:19;-1.70;99.90
18317;DHT22;9284;52.298;21.164;2024-01-06T15:18:47;-1.70;99.90
18317;DHT22;9284;52.298;21.164;2024-01-06T15:21:17;-1.70;99.90
18317;DHT22;9284;52.298;21.164;2024-01-06T15:23:50;-1.70;99.90
18317;DHT22;9284;52.298;21.164;2024-01-06T15:26:23;-1.60;99.90
18317;DHT22;9284;52.298;21.164;2024-01-06T15:28:51;-1.70;99.90
18317;DHT22;9284;52.298;21.164;2024-01-06T15:31:20;-1.70;99.90
18317;DHT22;9284;52.298;21.164;2024-01-06T15:33:48;-1.70;99.90
18317;DHT22;9284;52.298;21.164;2024-01-06T15:36:17;-1.70;99.90
18317;DHT22;9284;52.298;21.164;2024-01-06T15:38:47;-1.70;99.90
18317;DHT22;9284;52.298;21.164;2024-01-06T15:41:17;-1.70;99.90
18317;DHT22;9284;52.298;21.164;2024-01-06T15:43:48;-1.70;99.90
18317;DHT22;9284;52.298;21.164;2024-01-06T15:46:21;-1.80;99.90
18317;DHT22;9284;52.298;21.164;2024-01-06T15:48:52;-1.80;99.90
18317;DHT22;9284;52.298;21.164;2024-01-06T15:51:26;-1.80;99.90